sensor_id;sensor_type;location;lat;lon;timestamp;P1;durP1;ratioP1;P2;durP2;ratioP2
12350;SDS011;6240;51.538;7.696;2022-08-24T00:01:17;3.95;;;3.15;;
12350;SDS011;6240;51.538;7.696;2022-08-24T00:03:45;3.90;;;3.00;;
12350;SDS011;6240;51.538;7.696;2022-08-24T00:06:15;7.97;;;2.75;;
12350;SDS011;6240;51.538;7.696;2022-08-24T00:08:43;6.55;;;3.10;;
12350;SDS011;6240;51.538;7.696;2022-08-24T00:11:11;3.47;;;2.75;;
12350;SDS011;6240;51.538;7.696;2022-08-24T00:13:38;3.95;;;2.67;;
12350;SDS011;6240;51.538;7.696;2022-08-24T00:16:06;4.97;;;2.95;;
12350;SDS011;6240;51.538;7.696;2022-08-24T00:18:34;5.95;;;2.58;;
12350;SDS011;6240;51.538;7.696;2022-08-24T00:21:01;4.18;;;2.78;;
12350;SDS011;6240;51.538;7.696;2022-08-24T00:23:30;6.35;;;2.83;;
12350;SDS011;6240;51.538;7.696;2022-08-24T00:25:57;5.35;;;3.15;;
12350;SDS011;6240;51.538;7.696;2022-08-24T00:28:25;6.10;;;3.10;;
12350;SDS011;6240;51.538;7.696;2022-08-24T00:30:52;7.03;;;2.90;;
12350;SDS011;6240;51.538;7.696;2022-08-24T00:33:19;4.32;;;2.75;;
12350;SDS011;6240;51.538;7.696;2022-08-24T00:35:47;3.70;;;2.58;;
12350;SDS011;6240;51.538;7.696;2022-08-24T00:38:14;4.38;;;3.08;;
12350;SDS011;6240;51.538;7.696;2022-08-24T00:40:45;5.70;;;3.00;;
12350;SDS011;6240;51.538;7.696;2022-08-24T00:43:12;5.63;;;3.08;;
12350;SDS011;6240;51.538;7.696;2022-08-24T00:45:40;7.15;;;3.03;;
12350;SDS011;6240;51.538;7.696;2022-08-24T00:48:10;5.32;;;2.97;;
12350;SDS011;6240;51.538;7.696;2022-08-24T00:50:39;6.88;;;3.25;;
12350;SDS011;6240;51.538;7.696;2022-08-24T00:53:07;4.32;;;2.85;;
12350;SDS011;6240;51.538;7.696;2022-08-24T00:55:37;4.97;;;3.00;;
12350;SDS011;6240;51.538;7.696;2022-08-24T00:58:07;5.70;;;2.80;;
12350;SDS011;6240;51.538;7.696;2022-08-24T01:00:37;5.95;;;2.88;;
12350;SDS011;6240;51.538;7.696;2022-08-24T01:03:07;5.07;;;2.90;;
12350;SDS011;6240;51.538;7.696;2022-08-24T01:05:35;5.20;;;2.80;;
12350;SDS011;6240;51.538;7.696;2022-08-24T01:08:03;5.88;;;2.80;;
12350;SDS011;6240;51.538;7.696;2022-08-24T01:10:32;4.32;;;2.60;;
12350;SDS011;6240;51.538;7.696;2022-08-24T01:13:00;6.60;;;3.00;;
12350;SDS011;6240;51.538;7.696;2022-08-24T01:15:32;3.72;;;2.65;;
12350;SDS011;6240;51.538;7.696;2022-08-24T01:18:00;5.43;;;2.55;;
12350;SDS011;6240;51.538;7.696;2022-08-24T01:20:46;6.72;;;3.05;;
12350;SDS011;6240;51.538;7.696;2022-08-24T01:23:24;4.47;;;2.88;;
12350;SDS011;6240;51.538;7.696;2022-08-24T01:25:52;3.88;;;2.70;;
12350;SDS011;6240;51.538;7.696;2022-08-24T01:28:19;5.45;;;2.90;;
12350;SDS011;6240;51.538;7.696;2022-08-24T01:30:47;4.57;;;2.63;;
12350;SDS011;6240;51.538;7.696;2022-08-24T01:33:20;5.07;;;2.80;;
12350;SDS011;6240;51.538;7.696;2022-08-24T01:35:56;4.22;;;2.70;;
12350;SDS011;6240;51.538;7.696;2022-08-24T01:38:25;6.10;;;2.88;;
12350;SDS011;6240;51.538;7.696;2022-08-24T01:40:55;4.05;;;2.58;;
12350;SDS011;6240;51.538;7.696;2022-08-24T01:43:23;4.22;;;2.88;;
12350;SDS011;6240;51.538;7.696;2022-08-24T01:45:51;3.95;;;2.85;;
12350;SDS011;6240;51.538;7.696;2022-08-24T01:48:19;6.35;;;3.17;;
12350;SDS011;6240;51.538;7.696;2022-08-24T01:50:46;4.60;;;2.95;;
12350;SDS011;6240;51.538;7.696;2022-08-24T01:53:15;3.30;;;3.00;;
12350;SDS011;6240;51.538;7.696;2022-08-24T01:55:43;6.57;;;3.20;;
12350;SDS011;6240;51.538;7.696;2022-08-24T01:58:11;3.50;;;2.60;;
12350;SDS011;6240;51.538;7.696;2022-08-24T02:00:38;3.45;;;2.78;;
12350;SDS011;6240;51.538;7.696;2022-08-24T02:03:05;4.85;;;2.83;;
12350;SDS011;6240;51.538;7.696;2022-08-24T02:05:33;6.57;;;3.00;;
12350;SDS011;6240;51.538;7.696;2022-08-24T02:08:00;3.33;;;2.85;;
12350;SDS011;6240;51.538;7.696;2022-08-24T02:10:29;4.72;;;2.63;;
12350;SDS011;6240;51.538;7.696;2022-08-24T02:12:56;4.43;;;2.92;;
12350;SDS011;6240;51.538;7.696;2022-08-24T02:15:25;5.57;;;2.90;;
12350;SDS011;6240;51.538;7.696;2022-08-24T02:17:53;7.25;;;2.92;;
12350;SDS011;6240;51.538;7.696;2022-08-24T02:20:20;4.95;;;2.83;;
12350;SDS011;6240;51.538;7.696;2022-08-24T02:22:48;4.50;;;2.75;;
12350;SDS011;6240;51.538;7.696;2022-08-24T02:25:16;5.90;;;2.70;;
12350;SDS011;6240;51.538;7.696;2022-08-24T02:27:44;5.63;;;2.63;;
12350;SDS011;6240;51.538;7.696;2022-08-24T02:30:12;6.78;;;2.63;;
12350;SDS011;6240;51.538;7.696;2022-08-24T02:32:39;4.97;;;2.72;;
12350;SDS011;6240;51.538;7.696;2022-08-24T02:35:07;3.00;;;2.42;;
12350;SDS011;6240;51.538;7.696;2022-08-24T02:37:34;5.72;;;2.50;;
12350;SDS011;6240;51.538;7.696;2022-08-24T02:40:02;3.15;;;2.40;;
12350;SDS011;6240;51.538;7.696;2022-08-24T02:42:30;5.18;;;2.90;;
12350;SDS011;6240;51.538;7.696;2022-08-24T02:44:58;4.45;;;2.60;;
12350;SDS011;6240;51.538;7.696;2022-08-24T02:47:25;7.22;;;3.10;;
12350;SDS011;6240;51.538;7.696;2022-08-24T02:49:53;5.55;;;2.40;;
12350;SDS011;6240;51.538;7.696;2022-08-24T02:52:21;5.35;;;2.70;;
12350;SDS011;6240;51.538;7.696;2022-08-24T02:54:49;5.97;;;2.20;;
12350;SDS011;6240;51.538;7.696;2022-08-24T02:57:16;5.35;;;2.40;;
12350;SDS011;6240;51.538;7.696;2022-08-24T02:59:43;4.18;;;2.72;;
12350;SDS011;6240;51.538;7.696;2022-08-24T03:02:12;3.50;;;2.47;;
12350;SDS011;6240;51.538;7.696;2022-08-24T03:04:39;2.75;;;2.05;;
12350;SDS011;6240;51.538;7.696;2022-08-24T03:07:06;6.57;;;2.80;;
12350;SDS011;6240;51.538;7.696;2022-08-24T03:09:33;5.78;;;2.40;;
12350;SDS011;6240;51.538;7.696;2022-08-24T03:12:01;6.88;;;2.30;;
12350;SDS011;6240;51.538;7.696;2022-08-24T03:14:28;5.63;;;2.60;;
12350;SDS011;6240;51.538;7.696;2022-08-24T03:16:55;3.03;;;2.38;;
12350;SDS011;6240;51.538;7.696;2022-08-24T03:19:24;3.22;;;2.30;;
12350;SDS011;6240;51.538;7.696;2022-08-24T03:21:51;6.72;;;2.30;;
12350;SDS011;6240;51.538;7.696;2022-08-24T03:24:19;3.92;;;2.63;;
12350;SDS011;6240;51.538;7.696;2022-08-24T03:26:46;3.25;;;2.60;;
12350;SDS011;6240;51.538;7.696;2022-08-24T03:29:14;6.30;;;2.90;;
12350;SDS011;6240;51.538;7.696;2022-08-24T03:31:41;3.67;;;2.35;;
12350;SDS011;6240;51.538;7.696;2022-08-24T03:34:09;4.03;;;2.25;;
12350;SDS011;6240;51.538;7.696;2022-08-24T03:36:38;3.00;;;2.13;;
12350;SDS011;6240;51.538;7.696;2022-08-24T03:39:11;4.78;;;2.45;;
12350;SDS011;6240;51.538;7.696;2022-08-24T03:41:38;6.65;;;2.90;;
12350;SDS011;6240;51.538;7.696;2022-08-24T03:44:05;6.88;;;2.38;;
12350;SDS011;6240;51.538;7.696;2022-08-24T03:46:33;3.25;;;2.33;;
12350;SDS011;6240;51.538;7.696;2022-08-24T03:49:02;5.18;;;2.95;;
12350;SDS011;6240;51.538;7.696;2022-08-24T03:51:30;5.18;;;2.83;;
12350;SDS011;6240;51.538;7.696;2022-08-24T03:53:58;4.53;;;2.40;;
12350;SDS011;6240;51.538;7.696;2022-08-24T03:56:26;3.42;;;2.47;;
12350;SDS011;6240;51.538;7.696;2022-08-24T03:58:53;4.78;;;2.40;;
12350;SDS011;6240;51.538;7.696;2022-08-24T04:01:21;5.68;;;3.05;;
12350;SDS011;6240;51.538;7.696;2022-08-24T04:03:48;4.85;;;2.47;;
12350;SDS011;6240;51.538;7.696;2022-08-24T04:06:17;3.45;;;2.40;;
12350;SDS011;6240;51.538;7.696;2022-08-24T04:08:45;4.32;;;2.20;;
12350;SDS011;6240;51.538;7.696;2022-08-24T04:11:15;5.90;;;2.40;;
12350;SDS011;6240;51.538;7.696;2022-08-24T04:13:43;3.30;;;2.28;;
12350;SDS011;6240;51.538;7.696;2022-08-24T04:16:12;2.67;;;1.90;;
12350;SDS011;6240;51.538;7.696;2022-08-24T04:18:41;6.05;;;2.40;;
12350;SDS011;6240;51.538;7.696;2022-08-24T04:21:15;5.32;;;2.40;;
12350;SDS011;6240;51.538;7.696;2022-08-24T04:23:44;4.07;;;2.70;;
12350;SDS011;6240;51.538;7.696;2022-08-24T04:26:13;8.20;;;2.50;;
12350;SDS011;6240;51.538;7.696;2022-08-24T04:28:41;4.32;;;2.47;;
12350;SDS011;6240;51.538;7.696;2022-08-24T04:31:08;3.28;;;2.17;;
12350;SDS011;6240;51.538;7.696;2022-08-24T04:33:36;3.22;;;2.00;;
12350;SDS011;6240;51.538;7.696;2022-08-24T04:36:05;4.47;;;2.65;;
12350;SDS011;6240;51.538;7.696;2022-08-24T04:38:34;3.30;;;2.38;;
12350;SDS011;6240;51.538;7.696;2022-08-24T04:41:02;3.58;;;2.38;;
12350;SDS011;6240;51.538;7.696;2022-08-24T04:43:31;6.40;;;2.08;;
12350;SDS011;6240;51.538;7.696;2022-08-24T04:45:58;3.50;;;2.22;;
12350;SDS011;6240;51.538;7.696;2022-08-24T04:48:26;5.50;;;2.05;;
12350;SDS011;6240;51.538;7.696;2022-08-24T04:50:53;4.60;;;2.17;;
12350;SDS011;6240;51.538;7.696;2022-08-24T04:53:20;2.30;;;2.10;;
12350;SDS011;6240;51.538;7.696;2022-08-24T04:55:48;3.97;;;2.40;;
12350;SDS011;6240;51.538;7.696;2022-08-24T04:58:17;5.63;;;2.42;;
12350;SDS011;6240;51.538;7.696;2022-08-24T05:00:49;3.63;;;2.20;;
12350;SDS011;6240;51.538;7.696;2022-08-24T05:03:18;7.13;;;2.75;;
12350;SDS011;6240;51.538;7.696;2022-08-24T05:05:46;4.28;;;2.83;;
12350;SDS011;6240;51.538;7.696;2022-08-24T05:08:14;2.55;;;2.20;;
12350;SDS011;6240;51.538;7.696;2022-08-24T05:10:43;5.15;;;3.08;;
12350;SDS011;6240;51.538;7.696;2022-08-24T05:13:11;2.50;;;2.15;;
12350;SDS011;6240;51.538;7.696;2022-08-24T05:15:39;4.25;;;2.40;;
12350;SDS011;6240;51.538;7.696;2022-08-24T05:18:08;5.03;;;2.60;;
12350;SDS011;6240;51.538;7.696;2022-08-24T05:20:38;6.20;;;2.20;;
12350;SDS011;6240;51.538;7.696;2022-08-24T05:23:05;4.40;;;2.42;;
12350;SDS011;6240;51.538;7.696;2022-08-24T05:25:33;4.53;;;3.92;;
12350;SDS011;6240;51.538;7.696;2022-08-24T05:28:01;2.70;;;2.20;;
12350;SDS011;6240;51.538;7.696;2022-08-24T05:30:29;4.88;;;2.67;;
12350;SDS011;6240;51.538;7.696;2022-08-24T05:32:56;6.70;;;3.05;;
12350;SDS011;6240;51.538;7.696;2022-08-24T05:35:25;8.82;;;3.55;;
12350;SDS011;6240;51.538;7.696;2022-08-24T05:37:52;19.27;;;5.00;;
12350;SDS011;6240;51.538;7.696;2022-08-24T05:40:20;13.75;;;4.55;;
12350;SDS011;6240;51.538;7.696;2022-08-24T05:42:47;12.20;;;4.45;;
12350;SDS011;6240;51.538;7.696;2022-08-24T05:45:14;18.15;;;4.20;;
12350;SDS011;6240;51.538;7.696;2022-08-24T05:47:41;11.05;;;3.60;;
12350;SDS011;6240;51.538;7.696;2022-08-24T05:50:09;9.10;;;3.65;;
12350;SDS011;6240;51.538;7.696;2022-08-24T05:52:38;5.22;;;3.13;;
12350;SDS011;6240;51.538;7.696;2022-08-24T05:55:07;6.55;;;3.03;;
12350;SDS011;6240;51.538;7.696;2022-08-24T05:57:35;6.07;;;2.90;;
12350;SDS011;6240;51.538;7.696;2022-08-24T06:00:03;3.60;;;2.70;;
12350;SDS011;6240;51.538;7.696;2022-08-24T06:02:31;5.45;;;2.13;;
12350;SDS011;6240;51.538;7.696;2022-08-24T06:04:59;3.75;;;2.40;;
12350;SDS011;6240;51.538;7.696;2022-08-24T06:07:28;3.70;;;2.30;;
12350;SDS011;6240;51.538;7.696;2022-08-24T06:10:01;5.40;;;2.20;;
12350;SDS011;6240;51.538;7.696;2022-08-24T06:12:30;4.85;;;2.20;;
12350;SDS011;6240;51.538;7.696;2022-08-24T06:14:58;7.55;;;2.30;;
12350;SDS011;6240;51.538;7.696;2022-08-24T06:17:25;3.92;;;2.15;;
12350;SDS011;6240;51.538;7.696;2022-08-24T06:19:53;5.75;;;2.22;;
12350;SDS011;6240;51.538;7.696;2022-08-24T06:22:20;4.38;;;2.08;;
12350;SDS011;6240;51.538;7.696;2022-08-24T06:24:47;5.55;;;2.20;;
12350;SDS011;6240;51.538;7.696;2022-08-24T06:27:36;4.72;;;2.05;;
12350;SDS011;6240;51.538;7.696;2022-08-24T06:30:07;5.95;;;1.90;;
12350;SDS011;6240;51.538;7.696;2022-08-24T06:32:36;4.90;;;2.20;;
12350;SDS011;6240;51.538;7.696;2022-08-24T06:35:04;8.30;;;2.17;;
12350;SDS011;6240;51.538;7.696;2022-08-24T06:37:32;4.47;;;2.40;;
12350;SDS011;6240;51.538;7.696;2022-08-24T06:39:59;3.63;;;2.00;;
12350;SDS011;6240;51.538;7.696;2022-08-24T06:42:27;3.97;;;1.85;;
12350;SDS011;6240;51.538;7.696;2022-08-24T06:44:57;3.35;;;1.83;;
12350;SDS011;6240;51.538;7.696;2022-08-24T06:47:24;4.18;;;1.83;;
12350;SDS011;6240;51.538;7.696;2022-08-24T06:49:51;3.85;;;1.88;;
12350;SDS011;6240;51.538;7.696;2022-08-24T06:52:21;4.15;;;2.30;;
12350;SDS011;6240;51.538;7.696;2022-08-24T06:54:50;2.97;;;1.98;;
12350;SDS011;6240;51.538;7.696;2022-08-24T06:57:18;4.90;;;2.13;;
12350;SDS011;6240;51.538;7.696;2022-08-24T06:59:46;5.00;;;2.08;;
12350;SDS011;6240;51.538;7.696;2022-08-24T07:02:17;2.50;;;2.08;;
12350;SDS011;6240;51.538;7.696;2022-08-24T07:04:45;3.50;;;1.92;;
12350;SDS011;6240;51.538;7.696;2022-08-24T07:07:12;2.58;;;1.73;;
12350;SDS011;6240;51.538;7.696;2022-08-24T07:09:39;5.18;;;2.30;;
12350;SDS011;6240;51.538;7.696;2022-08-24T07:12:07;3.22;;;2.30;;
12350;SDS011;6240;51.538;7.696;2022-08-24T07:14:34;2.40;;;1.98;;
12350;SDS011;6240;51.538;7.696;2022-08-24T07:17:02;4.20;;;2.38;;
12350;SDS011;6240;51.538;7.696;2022-08-24T07:19:30;2.25;;;1.92;;
12350;SDS011;6240;51.538;7.696;2022-08-24T07:21:58;5.75;;;1.98;;
12350;SDS011;6240;51.538;7.696;2022-08-24T07:24:25;3.92;;;1.95;;
12350;SDS011;6240;51.538;7.696;2022-08-24T07:26:52;2.90;;;2.08;;
12350;SDS011;6240;51.538;7.696;2022-08-24T07:29:20;2.40;;;2.00;;
12350;SDS011;6240;51.538;7.696;2022-08-24T07:31:47;4.15;;;2.00;;
12350;SDS011;6240;51.538;7.696;2022-08-24T07:34:14;2.47;;;1.98;;
12350;SDS011;6240;51.538;7.696;2022-08-24T07:36:43;4.10;;;1.92;;
12350;SDS011;6240;51.538;7.696;2022-08-24T07:39:10;2.92;;;2.13;;
12350;SDS011;6240;51.538;7.696;2022-08-24T07:41:39;2.80;;;1.90;;
12350;SDS011;6240;51.538;7.696;2022-08-24T07:44:06;2.28;;;2.00;;
12350;SDS011;6240;51.538;7.696;2022-08-24T07:46:34;3.15;;;1.92;;
12350;SDS011;6240;51.538;7.696;2022-08-24T07:49:04;3.88;;;2.28;;
12350;SDS011;6240;51.538;7.696;2022-08-24T07:51:33;4.07;;;2.22;;
12350;SDS011;6240;51.538;7.696;2022-08-24T07:54:02;3.40;;;1.90;;
12350;SDS011;6240;51.538;7.696;2022-08-24T07:56:29;2.13;;;1.92;;
12350;SDS011;6240;51.538;7.696;2022-08-24T07:58:57;5.68;;;2.15;;
12350;SDS011;6240;51.538;7.696;2022-08-24T08:01:24;5.20;;;2.28;;
12350;SDS011;6240;51.538;7.696;2022-08-24T08:03:51;4.22;;;2.10;;
12350;SDS011;6240;51.538;7.696;2022-08-24T08:06:18;6.30;;;2.28;;
12350;SDS011;6240;51.538;7.696;2022-08-24T08:08:46;1.90;;;1.70;;
12350;SDS011;6240;51.538;7.696;2022-08-24T08:11:15;5.45;;;1.95;;
12350;SDS011;6240;51.538;7.696;2022-08-24T08:13:42;3.78;;;2.15;;
12350;SDS011;6240;51.538;7.696;2022-08-24T08:16:09;6.88;;;2.45;;
12350;SDS011;6240;51.538;7.696;2022-08-24T08:18:36;3.45;;;2.25;;
12350;SDS011;6240;51.538;7.696;2022-08-24T08:21:05;3.22;;;2.25;;
12350;SDS011;6240;51.538;7.696;2022-08-24T08:23:55;3.35;;;2.08;;
12350;SDS011;6240;51.538;7.696;2022-08-24T08:26:41;2.88;;;2.10;;
12350;SDS011;6240;51.538;7.696;2022-08-24T08:29:09;4.15;;;2.53;;
12350;SDS011;6240;51.538;7.696;2022-08-24T08:31:38;4.70;;;2.60;;
12350;SDS011;6240;51.538;7.696;2022-08-24T08:34:08;3.20;;;2.30;;
12350;SDS011;6240;51.538;7.696;2022-08-24T08:36:37;7.07;;;2.17;;
12350;SDS011;6240;51.538;7.696;2022-08-24T08:39:05;4.72;;;2.15;;
12350;SDS011;6240;51.538;7.696;2022-08-24T08:44:21;2.22;;;2.00;;
12350;SDS011;6240;51.538;7.696;2022-08-24T08:46:59;3.92;;;2.22;;
12350;SDS011;6240;51.538;7.696;2022-08-24T08:49:32;4.55;;;2.00;;
12350;SDS011;6240;51.538;7.696;2022-08-24T08:54:58;4.45;;;1.80;;
12350;SDS011;6240;51.538;7.696;2022-08-24T09:00:15;3.75;;;2.10;;
12350;SDS011;6240;51.538;7.696;2022-08-24T09:02:48;3.47;;;1.95;;
12350;SDS011;6240;51.538;7.696;2022-08-24T09:05:32;6.80;;;2.17;;
12350;SDS011;6240;51.538;7.696;2022-08-24T09:08:04;3.63;;;2.40;;
12350;SDS011;6240;51.538;7.696;2022-08-24T09:10:37;3.10;;;2.35;;
12350;SDS011;6240;51.538;7.696;2022-08-24T09:13:10;6.13;;;2.33;;
12350;SDS011;6240;51.538;7.696;2022-08-24T09:16:02;5.50;;;2.58;;
12350;SDS011;6240;51.538;7.696;2022-08-24T09:18:38;5.97;;;2.65;;
12350;SDS011;6240;51.538;7.696;2022-08-24T09:21:12;4.50;;;2.30;;
12350;SDS011;6240;51.538;7.696;2022-08-24T09:23:44;3.40;;;2.20;;
12350;SDS011;6240;51.538;7.696;2022-08-24T09:26:16;5.35;;;2.30;;
12350;SDS011;6240;51.538;7.696;2022-08-24T09:28:47;7.60;;;2.80;;
12350;SDS011;6240;51.538;7.696;2022-08-24T09:31:30;3.72;;;1.85;;
12350;SDS011;6240;51.538;7.696;2022-08-24T09:34:05;4.15;;;2.20;;
12350;SDS011;6240;51.538;7.696;2022-08-24T09:36:38;10.90;;;2.53;;
12350;SDS011;6240;51.538;7.696;2022-08-24T09:39:13;6.40;;;2.53;;
12350;SDS011;6240;51.538;7.696;2022-08-24T09:41:54;4.70;;;2.22;;
12350;SDS011;6240;51.538;7.696;2022-08-24T09:44:34;5.03;;;2.45;;
12350;SDS011;6240;51.538;7.696;2022-08-24T09:47:14;4.10;;;2.10;;
12350;SDS011;6240;51.538;7.696;2022-08-24T09:49:56;5.50;;;2.47;;
12350;SDS011;6240;51.538;7.696;2022-08-24T09:58:28;5.60;;;2.17;;
12350;SDS011;6240;51.538;7.696;2022-08-24T10:04:26;5.10;;;1.90;;
12350;SDS011;6240;51.538;7.696;2022-08-24T10:06:58;4.60;;;1.90;;
12350;SDS011;6240;51.538;7.696;2022-08-24T10:09:38;4.25;;;1.77;;
12350;SDS011;6240;51.538;7.696;2022-08-24T10:12:17;3.42;;;1.80;;
12350;SDS011;6240;51.538;7.696;2022-08-24T10:14:57;3.78;;;1.95;;
12350;SDS011;6240;51.538;7.696;2022-08-24T10:17:31;3.88;;;1.70;;
12350;SDS011;6240;51.538;7.696;2022-08-24T10:20:07;4.50;;;1.88;;
12350;SDS011;6240;51.538;7.696;2022-08-24T10:22:57;4.40;;;1.90;;
12350;SDS011;6240;51.538;7.696;2022-08-24T10:25:30;3.30;;;1.67;;
12350;SDS011;6240;51.538;7.696;2022-08-24T10:28:02;3.30;;;1.60;;
12350;SDS011;6240;51.538;7.696;2022-08-24T10:33:21;5.85;;;2.00;;
12350;SDS011;6240;51.538;7.696;2022-08-24T10:36:11;3.65;;;2.03;;
12350;SDS011;6240;51.538;7.696;2022-08-24T10:38:43;4.30;;;1.92;;
12350;SDS011;6240;51.538;7.696;2022-08-24T10:44:41;3.20;;;1.90;;
12350;SDS011;6240;51.538;7.696;2022-08-24T10:47:11;5.90;;;2.15;;
12350;SDS011;6240;51.538;7.696;2022-08-24T10:55:25;4.10;;;2.03;;
12350;SDS011;6240;51.538;7.696;2022-08-24T10:58:03;3.85;;;2.10;;
12350;SDS011;6240;51.538;7.696;2022-08-24T11:00:33;4.72;;;2.10;;
12350;SDS011;6240;51.538;7.696;2022-08-24T11:03:05;5.43;;;2.08;;
12350;SDS011;6240;51.538;7.696;2022-08-24T11:05:37;6.65;;;2.08;;
12350;SDS011;6240;51.538;7.696;2022-08-24T11:08:08;2.75;;;1.75;;
12350;SDS011;6240;51.538;7.696;2022-08-24T11:10:40;2.78;;;1.80;;
12350;SDS011;6240;51.538;7.696;2022-08-24T11:13:14;5.47;;;1.88;;
12350;SDS011;6240;51.538;7.696;2022-08-24T11:15:46;6.80;;;1.92;;
12350;SDS011;6240;51.538;7.696;2022-08-24T11:18:15;7.53;;;2.20;;
12350;SDS011;6240;51.538;7.696;2022-08-24T11:20:44;3.65;;;1.88;;
12350;SDS011;6240;51.538;7.696;2022-08-24T11:23:14;7.97;;;1.90;;
12350;SDS011;6240;51.538;7.696;2022-08-24T11:25:50;6.35;;;2.10;;
12350;SDS011;6240;51.538;7.696;2022-08-24T11:28:19;4.72;;;2.08;;
12350;SDS011;6240;51.538;7.696;2022-08-24T11:30:48;3.10;;;2.13;;
12350;SDS011;6240;51.538;7.696;2022-08-24T11:33:23;2.47;;;2.00;;
12350;SDS011;6240;51.538;7.696;2022-08-24T11:35:51;5.05;;;1.70;;
12350;SDS011;6240;51.538;7.696;2022-08-24T11:38:20;5.20;;;1.92;;
12350;SDS011;6240;51.538;7.696;2022-08-24T11:40:50;2.55;;;1.90;;
12350;SDS011;6240;51.538;7.696;2022-08-24T11:43:20;3.05;;;1.88;;
12350;SDS011;6240;51.538;7.696;2022-08-24T11:45:54;7.40;;;2.20;;
12350;SDS011;6240;51.538;7.696;2022-08-24T11:48:27;4.32;;;2.20;;
12350;SDS011;6240;51.538;7.696;2022-08-24T11:51:00;3.95;;;1.98;;
12350;SDS011;6240;51.538;7.696;2022-08-24T11:53:35;5.13;;;2.00;;
12350;SDS011;6240;51.538;7.696;2022-08-24T11:56:09;3.20;;;1.80;;
12350;SDS011;6240;51.538;7.696;2022-08-24T11:58:44;2.75;;;1.80;;
12350;SDS011;6240;51.538;7.696;2022-08-24T12:01:14;2.42;;;1.80;;
12350;SDS011;6240;51.538;7.696;2022-08-24T12:03:49;3.45;;;1.75;;
12350;SDS011;6240;51.538;7.696;2022-08-24T12:06:22;3.75;;;1.70;;
12350;SDS011;6240;51.538;7.696;2022-08-24T12:09:03;3.35;;;1.80;;
12350;SDS011;6240;51.538;7.696;2022-08-24T12:11:38;5.95;;;1.92;;
12350;SDS011;6240;51.538;7.696;2022-08-24T12:14:13;3.55;;;1.52;;
12350;SDS011;6240;51.538;7.696;2022-08-24T12:16:44;3.50;;;1.70;;
12350;SDS011;6240;51.538;7.696;2022-08-24T12:19:15;2.45;;;1.90;;
12350;SDS011;6240;51.538;7.696;2022-08-24T12:21:48;4.75;;;1.80;;
12350;SDS011;6240;51.538;7.696;2022-08-24T12:24:19;4.13;;;1.65;;
12350;SDS011;6240;51.538;7.696;2022-08-24T12:26:50;3.55;;;1.85;;
12350;SDS011;6240;51.538;7.696;2022-08-24T12:29:21;4.40;;;2.35;;
12350;SDS011;6240;51.538;7.696;2022-08-24T12:31:54;4.28;;;1.88;;
12350;SDS011;6240;51.538;7.696;2022-08-24T12:34:26;4.03;;;1.92;;
12350;SDS011;6240;51.538;7.696;2022-08-24T12:36:57;4.38;;;1.90;;
12350;SDS011;6240;51.538;7.696;2022-08-24T12:39:28;2.85;;;1.70;;
12350;SDS011;6240;51.538;7.696;2022-08-24T12:42:01;2.38;;;1.80;;
12350;SDS011;6240;51.538;7.696;2022-08-24T12:44:34;2.42;;;1.63;;
12350;SDS011;6240;51.538;7.696;2022-08-24T12:47:04;3.67;;;2.08;;
12350;SDS011;6240;51.538;7.696;2022-08-24T12:49:33;2.83;;;1.80;;
12350;SDS011;6240;51.538;7.696;2022-08-24T12:52:08;3.67;;;2.05;;
12350;SDS011;6240;51.538;7.696;2022-08-24T12:54:45;4.70;;;1.90;;
12350;SDS011;6240;51.538;7.696;2022-08-24T12:57:20;3.70;;;1.92;;
12350;SDS011;6240;51.538;7.696;2022-08-24T12:59:54;2.50;;;2.00;;
12350;SDS011;6240;51.538;7.696;2022-08-24T13:02:26;5.07;;;2.15;;
12350;SDS011;6240;51.538;7.696;2022-08-24T13:04:57;3.25;;;2.13;;
12350;SDS011;6240;51.538;7.696;2022-08-24T13:07:27;1.83;;;1.60;;
12350;SDS011;6240;51.538;7.696;2022-08-24T13:10:07;2.58;;;1.85;;
12350;SDS011;6240;51.538;7.696;2022-08-24T13:13:07;6.07;;;2.20;;
12350;SDS011;6240;51.538;7.696;2022-08-24T13:18:26;3.88;;;1.95;;
12350;SDS011;6240;51.538;7.696;2022-08-24T13:21:13;5.65;;;2.33;;
12350;SDS011;6240;51.538;7.696;2022-08-24T13:23:41;5.13;;;2.00;;
12350;SDS011;6240;51.538;7.696;2022-08-24T13:26:21;6.38;;;2.25;;
12350;SDS011;6240;51.538;7.696;2022-08-24T13:28:52;4.30;;;1.90;;
12350;SDS011;6240;51.538;7.696;2022-08-24T13:31:26;4.97;;;1.95;;
12350;SDS011;6240;51.538;7.696;2022-08-24T13:33:57;5.00;;;2.10;;
12350;SDS011;6240;51.538;7.696;2022-08-24T13:36:38;3.88;;;2.05;;
12350;SDS011;6240;51.538;7.696;2022-08-24T13:39:11;4.13;;;2.00;;
12350;SDS011;6240;51.538;7.696;2022-08-24T13:41:44;2.80;;;2.00;;
12350;SDS011;6240;51.538;7.696;2022-08-24T13:44:17;3.42;;;2.00;;
12350;SDS011;6240;51.538;7.696;2022-08-24T13:46:50;3.05;;;1.98;;
12350;SDS011;6240;51.538;7.696;2022-08-24T13:49:32;2.17;;;1.70;;
12350;SDS011;6240;51.538;7.696;2022-08-24T13:52:09;4.45;;;2.13;;
12350;SDS011;6240;51.538;7.696;2022-08-24T13:54:41;4.15;;;2.00;;
12350;SDS011;6240;51.538;7.696;2022-08-24T13:57:24;3.47;;;2.28;;
12350;SDS011;6240;51.538;7.696;2022-08-24T14:00:08;4.10;;;1.90;;
12350;SDS011;6240;51.538;7.696;2022-08-24T14:02:48;4.55;;;2.08;;
12350;SDS011;6240;51.538;7.696;2022-08-24T14:05:23;4.57;;;1.90;;
12350;SDS011;6240;51.538;7.696;2022-08-24T14:07:56;3.10;;;2.17;;
12350;SDS011;6240;51.538;7.696;2022-08-24T14:10:33;2.80;;;2.10;;
12350;SDS011;6240;51.538;7.696;2022-08-24T14:13:14;3.60;;;1.90;;
12350;SDS011;6240;51.538;7.696;2022-08-24T14:15:47;4.18;;;2.10;;
12350;SDS011;6240;51.538;7.696;2022-08-24T14:18:43;3.30;;;1.80;;
12350;SDS011;6240;51.538;7.696;2022-08-24T14:21:14;3.83;;;2.60;;
12350;SDS011;6240;51.538;7.696;2022-08-24T14:23:48;3.80;;;1.83;;
12350;SDS011;6240;51.538;7.696;2022-08-24T14:35:02;5.65;;;2.20;;
12350;SDS011;6240;51.538;7.696;2022-08-24T14:37:35;4.60;;;2.00;;
12350;SDS011;6240;51.538;7.696;2022-08-24T14:40:11;5.38;;;2.13;;
12350;SDS011;6240;51.538;7.696;2022-08-24T14:42:44;5.97;;;1.95;;
12350;SDS011;6240;51.538;7.696;2022-08-24T14:45:14;3.58;;;1.90;;
12350;SDS011;6240;51.538;7.696;2022-08-24T14:47:49;5.28;;;2.22;;
12350;SDS011;6240;51.538;7.696;2022-08-24T14:50:26;6.53;;;2.03;;
12350;SDS011;6240;51.538;7.696;2022-08-24T14:52:59;1.95;;;1.67;;
12350;SDS011;6240;51.538;7.696;2022-08-24T14:55:33;4.50;;;2.28;;
12350;SDS011;6240;51.538;7.696;2022-08-24T14:58:13;3.85;;;2.00;;
12350;SDS011;6240;51.538;7.696;2022-08-24T15:00:58;4.05;;;1.75;;
12350;SDS011;6240;51.538;7.696;2022-08-24T15:06:21;2.55;;;2.00;;
12350;SDS011;6240;51.538;7.696;2022-08-24T15:08:50;2.25;;;1.85;;
12350;SDS011;6240;51.538;7.696;2022-08-24T15:11:21;2.45;;;2.00;;
12350;SDS011;6240;51.538;7.696;2022-08-24T15:13:53;2.53;;;1.90;;
12350;SDS011;6240;51.538;7.696;2022-08-24T15:16:25;1.98;;;1.70;;
12350;SDS011;6240;51.538;7.696;2022-08-24T15:18:56;3.15;;;2.22;;
12350;SDS011;6240;51.538;7.696;2022-08-24T15:21:39;6.32;;;1.88;;
12350;SDS011;6240;51.538;7.696;2022-08-24T15:24:19;3.75;;;1.98;;
12350;SDS011;6240;51.538;7.696;2022-08-24T15:27:01;7.25;;;2.13;;
12350;SDS011;6240;51.538;7.696;2022-08-24T15:29:34;3.55;;;2.30;;
12350;SDS011;6240;51.538;7.696;2022-08-24T15:32:04;2.83;;;2.13;;
12350;SDS011;6240;51.538;7.696;2022-08-24T15:34:35;3.90;;;2.00;;
12350;SDS011;6240;51.538;7.696;2022-08-24T15:37:05;3.35;;;2.20;;
12350;SDS011;6240;51.538;7.696;2022-08-24T15:39:34;4.32;;;1.92;;
12350;SDS011;6240;51.538;7.696;2022-08-24T15:42:04;5.43;;;1.90;;
12350;SDS011;6240;51.538;7.696;2022-08-24T15:44:34;4.72;;;2.42;;
12350;SDS011;6240;51.538;7.696;2022-08-24T15:47:11;3.85;;;2.00;;
12350;SDS011;6240;51.538;7.696;2022-08-24T15:49:44;4.50;;;2.08;;
12350;SDS011;6240;51.538;7.696;2022-08-24T15:52:32;2.83;;;1.95;;
12350;SDS011;6240;51.538;7.696;2022-08-24T15:55:03;2.92;;;2.05;;
12350;SDS011;6240;51.538;7.696;2022-08-24T15:57:32;4.53;;;2.00;;
12350;SDS011;6240;51.538;7.696;2022-08-24T16:00:05;3.40;;;2.17;;
12350;SDS011;6240;51.538;7.696;2022-08-24T16:02:33;5.43;;;1.90;;
12350;SDS011;6240;51.538;7.696;2022-08-24T16:05:16;4.50;;;2.00;;
12350;SDS011;6240;51.538;7.696;2022-08-24T16:08:04;4.97;;;2.50;;